< < Back
Terminal Aerodrome Forecast


Current Version              Previous Versions:   1  2  3  4  5  6  7  8  9  

Terminal Aerodrome Forecast

286
FTUS42 KTAE 272331
TAFDHN
TAF
KDHN 272331Z 2800/2824 00000KT P6SM SCT250
     FM281500 12008KT P6SM SCT050 SCT250=



Latest METAR

162
SAUS70 KWBC 280000 RRC
MTRDHN
METAR KDHN 272353Z 06003KT 10SM SCT075 30/18 A2997 RMK AO2 SLP142
T03000178 10333 20300 53007


USA.gov is the U.S. government's official web portal to all federal, state and local government web resources and services.